createdAt,value
2018-04-15T00:01:53.424Z,5.20
2018-04-15T00:04:22.279Z,4.00
2018-04-15T00:06:51.213Z,3.53
2018-04-15T00:09:20.087Z,5.17
2018-04-15T00:11:48.943Z,4.43
2018-04-15T00:14:17.830Z,4.77
2018-04-15T00:16:46.706Z,4.83
2018-04-15T00:19:15.611Z,4.47
2018-04-15T00:21:45.235Z,4.53
2018-04-15T00:24:14.087Z,4.40
2018-04-15T00:26:42.994Z,5.93
2018-04-15T00:29:11.854Z,4.90
2018-04-15T00:31:40.717Z,4.93
2018-04-15T00:34:09.621Z,5.17
2018-04-15T00:36:38.487Z,4.13
2018-04-15T00:39:07.358Z,4.87
2018-04-15T00:41:36.244Z,4.37
2018-04-15T00:44:05.135Z,4.87
2018-04-15T00:46:33.998Z,4.73
2018-04-15T00:49:02.859Z,4.50
2018-04-15T00:51:31.751Z,4.63
2018-04-15T00:54:17.568Z,2.97
2018-04-15T00:56:46.463Z,3.70
2018-04-15T00:59:15.361Z,4.70
2018-04-15T01:01:44.220Z,5.10
2018-04-15T01:04:13.092Z,4.07
2018-04-15T01:06:41.983Z,5.10
2018-04-15T01:09:10.845Z,5.73
2018-04-15T01:11:39.711Z,6.67
2018-04-15T01:14:08.595Z,5.47
2018-04-15T01:16:37.459Z,3.03
2018-04-15T01:19:06.345Z,3.00
2018-04-15T01:21:35.275Z,3.47
2018-04-15T01:24:04.152Z,4.53
2018-04-15T01:26:33.799Z,4.67
2018-04-15T01:29:02.694Z,5.90
2018-04-15T01:31:31.576Z,3.73
2018-04-15T01:34:01.235Z,4.80
2018-04-15T01:36:30.112Z,3.30
2018-04-15T01:38:58.973Z,5.57
2018-04-15T01:41:27.886Z,3.97
2018-04-15T01:43:56.747Z,6.10
2018-04-15T01:46:25.599Z,6.07
2018-04-15T01:48:54.479Z,4.03
2018-04-15T01:51:23.339Z,4.33
2018-04-15T01:53:52.236Z,6.30
2018-04-15T01:56:21.091Z,4.67
2018-04-15T01:58:49.952Z,4.43
2018-04-15T02:01:18.859Z,3.90
2018-04-15T02:03:47.723Z,5.60
2018-04-15T02:06:16.583Z,7.33
2018-04-15T02:08:45.484Z,6.83
2018-04-15T02:11:14.343Z,4.93
2018-04-15T02:13:43.236Z,5.47
2018-04-15T02:16:12.151Z,5.27
2018-04-15T02:18:41.795Z,4.97
2018-04-15T02:21:10.656Z,5.10
2018-04-15T02:23:39.548Z,4.37
2018-04-15T02:26:08.409Z,6.23
2018-04-15T02:28:37.271Z,4.73
2018-04-15T02:31:06.148Z,5.47
2018-04-15T02:33:35.603Z,4.70
2018-04-15T02:36:04.500Z,5.83
2018-04-15T02:38:34.131Z,7.77
2018-04-15T02:41:03.029Z,5.10
2018-04-15T02:43:31.921Z,4.93
2018-04-15T02:46:01.556Z,5.33
2018-04-15T02:48:30.464Z,5.00
2018-04-15T02:50:59.348Z,5.70
2018-04-15T02:53:28.202Z,5.43
2018-04-15T02:55:57.084Z,5.90
2018-04-15T02:58:25.974Z,5.37
2018-04-15T03:00:54.841Z,6.23
2018-04-15T03:03:23.722Z,4.13
2018-04-15T03:05:52.623Z,5.43
2018-04-15T03:08:22.247Z,6.83
2018-04-15T03:10:51.136Z,5.70
2018-04-15T03:13:20.008Z,7.23
2018-04-15T03:15:48.864Z,5.57
2018-04-15T03:18:17.764Z,5.50
2018-04-15T03:20:46.626Z,6.20
2018-04-15T03:23:15.493Z,7.87
2018-04-15T03:25:44.377Z,5.27
2018-04-15T03:28:13.298Z,6.60
2018-04-15T03:30:42.149Z,7.90
2018-04-15T03:33:11.010Z,7.23
2018-04-15T03:35:40.672Z,7.10
2018-04-15T03:38:09.570Z,6.33
2018-04-15T03:40:38.426Z,6.13
2018-04-15T03:43:07.280Z,6.93
2018-04-15T03:45:36.949Z,6.60
2018-04-15T03:48:05.813Z,9.33
2018-04-15T03:50:34.682Z,5.57
2018-04-15T03:53:03.578Z,6.03
2018-04-15T03:55:32.442Z,6.53
2018-04-15T03:58:01.301Z,4.73
2018-04-15T04:00:30.200Z,8.13
2018-04-15T04:02:59.056Z,5.97
2018-04-15T04:05:27.918Z,6.57
2018-04-15T04:07:57.563Z,7.30
2018-04-15T04:10:27.228Z,9.90
2018-04-15T04:12:56.111Z,6.60
2018-04-15T04:15:25.771Z,6.90
2018-04-15T04:18:12.467Z,7.00
2018-04-15T04:20:59.157Z,6.33
2018-04-15T04:23:45.901Z,5.93
2018-04-15T04:26:16.449Z,6.37
2018-04-15T04:28:45.318Z,5.63
2018-04-15T04:31:14.212Z,6.63
2018-04-15T04:33:43.075Z,5.60
2018-04-15T04:36:11.940Z,7.73
2018-04-15T04:38:40.832Z,7.47
2018-04-15T04:41:09.691Z,6.97
2018-04-15T04:43:38.551Z,9.27
2018-04-15T04:46:07.428Z,7.57
2018-04-15T04:48:36.307Z,7.57
2018-04-15T04:51:05.173Z,7.77
2018-04-15T04:53:34.087Z,7.53
2018-04-15T04:56:02.952Z,7.57
2018-04-15T04:58:32.597Z,8.37
2018-04-15T05:01:01.496Z,7.93
2018-04-15T05:03:30.356Z,10.20
2018-04-15T05:05:59.211Z,8.17
2018-04-15T05:08:28.855Z,9.77
2018-04-15T05:10:57.731Z,6.83
2018-04-15T05:13:26.587Z,9.07
2018-04-15T05:15:55.470Z,8.13
2018-04-15T05:18:24.333Z,7.63
2018-04-15T05:20:53.195Z,6.90
2018-04-15T05:23:22.092Z,5.60
2018-04-15T05:25:50.964Z,8.57
2018-04-15T05:28:19.818Z,6.73
2018-04-15T05:30:48.715Z,8.73
2018-04-15T05:33:17.605Z,8.93
2018-04-15T05:35:46.473Z,8.43
2018-04-15T05:38:15.383Z,10.23
2018-04-15T05:40:44.270Z,8.67
2018-04-15T05:43:13.924Z,11.13
2018-04-15T05:45:42.871Z,9.23
2018-04-15T05:48:11.800Z,12.47
2018-04-15T05:50:40.670Z,9.23
2018-04-15T05:53:09.571Z,8.73
2018-04-15T05:55:39.261Z,8.30
2018-04-15T05:58:08.892Z,10.63
2018-04-15T06:00:37.759Z,12.37
2018-04-15T06:03:06.644Z,9.10
2018-04-15T06:05:35.507Z,9.90
2018-04-15T06:08:04.377Z,8.07
2018-04-15T06:10:33.287Z,14.10
2018-04-15T06:13:02.161Z,8.77
2018-04-15T06:15:31.100Z,11.90
2018-04-15T06:17:59.952Z,11.83
2018-04-15T06:20:29.591Z,10.40
2018-04-15T06:22:58.455Z,9.83
2018-04-15T06:25:27.356Z,9.30
2018-04-15T06:27:56.230Z,10.70
2018-04-15T06:30:25.108Z,9.60
2018-04-15T06:32:54.018Z,9.87
2018-04-15T06:35:23.683Z,11.90
2018-04-15T06:37:52.554Z,12.97
2018-04-15T06:40:21.435Z,13.77
2018-04-15T06:42:50.331Z,13.77
2018-04-15T06:45:20.005Z,14.07
2018-04-15T06:47:48.896Z,10.70
2018-04-15T06:50:18.548Z,12.40
2018-04-15T06:52:47.419Z,11.70
2018-04-15T06:55:17.085Z,12.20
2018-04-15T06:57:45.979Z,12.03
2018-04-15T07:00:14.849Z,13.70
2018-04-15T07:02:43.719Z,11.10
2018-04-15T07:05:12.610Z,9.10
2018-04-15T07:07:41.544Z,9.87
2018-04-15T07:10:10.425Z,11.83
2018-04-15T07:12:39.305Z,11.90
2018-04-15T07:15:08.999Z,12.17
2018-04-15T07:17:37.905Z,10.80
2018-04-15T07:20:06.782Z,13.47
2018-04-15T07:22:35.663Z,9.73
2018-04-15T07:25:04.571Z,13.97
2018-04-15T07:27:34.205Z,10.97
2018-04-15T07:30:03.096Z,10.43
2018-04-15T07:32:32.015Z,10.90
2018-04-15T07:35:01.655Z,9.37
2018-04-15T07:37:30.528Z,11.53
2018-04-15T07:40:00.203Z,7.63
2018-04-15T07:42:29.077Z,13.80
2018-04-15T07:44:57.985Z,10.33
2018-04-15T07:47:26.857Z,10.70
2018-04-15T07:49:55.898Z,10.07
2018-04-15T07:52:24.787Z,10.03
2018-04-15T07:54:53.663Z,11.43
2018-04-15T07:57:22.735Z,10.87
2018-04-15T07:59:51.631Z,9.93
2018-04-15T08:02:20.569Z,9.37
2018-04-15T08:04:50.186Z,10.33
2018-04-15T08:07:19.193Z,9.27
2018-04-15T08:09:48.375Z,11.43
2018-04-15T08:12:17.246Z,9.77
2018-04-15T08:14:46.157Z,7.73
2018-04-15T08:17:15.793Z,11.13
2018-04-15T08:19:44.711Z,10.63
2018-04-15T08:22:14.393Z,10.27
2018-04-15T08:24:43.269Z,8.43
2018-04-15T08:27:12.179Z,10.87
2018-04-15T08:29:43.420Z,11.03
2018-04-15T08:32:12.298Z,10.97
2018-04-15T08:34:41.172Z,10.63
2018-04-15T08:37:10.132Z,13.17
2018-04-15T08:39:39.039Z,11.33
2018-04-15T08:42:08.039Z,10.97
2018-04-15T08:44:37.043Z,8.77
2018-04-15T08:47:06.750Z,7.50
2018-04-15T08:49:35.658Z,9.23
2018-04-15T08:52:04.567Z,11.63
2018-04-15T08:54:33.467Z,10.07
2018-04-15T08:57:02.414Z,10.23
2018-04-15T08:59:31.295Z,12.07
2018-04-15T09:02:00.202Z,10.13
2018-04-15T09:04:29.839Z,11.23
2018-04-15T09:06:58.715Z,10.60
2018-04-15T09:09:27.602Z,9.83
2018-04-15T09:11:56.476Z,7.53
2018-04-15T09:14:25.418Z,11.03
2018-04-15T09:16:54.296Z,9.93
2018-04-15T09:19:23.195Z,6.43
2018-04-15T09:21:52.103Z,9.70
2018-04-15T09:24:21.751Z,9.47
2018-04-15T09:26:50.618Z,11.80
2018-04-15T09:29:19.539Z,12.27
2018-04-15T09:31:48.415Z,11.87
2018-04-15T09:34:17.552Z,9.47
2018-04-15T09:36:46.440Z,7.90
2018-04-15T09:39:15.364Z,8.63
2018-04-15T09:41:44.270Z,9.30
2018-04-15T09:44:13.187Z,9.73
2018-04-15T09:46:42.099Z,10.17
2018-04-15T09:49:10.993Z,6.83
2018-04-15T09:51:39.868Z,8.30
2018-04-15T09:54:08.744Z,10.00
2018-04-15T09:56:37.631Z,7.13
2018-04-15T09:59:06.539Z,11.10
2018-04-15T10:01:35.394Z,12.23
2018-04-15T10:04:04.302Z,9.07
2018-04-15T10:06:33.948Z,11.20
2018-04-15T10:09:02.857Z,11.50
2018-04-15T10:11:31.803Z,11.23
2018-04-15T10:14:00.679Z,8.63
2018-04-15T10:16:29.571Z,10.23
2018-04-15T10:18:58.951Z,7.77
2018-04-15T10:21:27.819Z,12.60
2018-04-15T10:23:56.721Z,10.60
2018-04-15T10:26:26.399Z,9.13
2018-04-15T10:28:55.275Z,9.60
2018-04-15T10:31:24.154Z,7.93
2018-04-15T10:33:53.051Z,9.20
2018-04-15T10:36:22.720Z,8.77
2018-04-15T10:38:51.626Z,12.13
2018-04-15T10:41:21.303Z,9.93
2018-04-15T10:43:50.254Z,12.13
2018-04-15T10:46:19.155Z,9.43
2018-04-15T10:48:48.029Z,15.43
2018-04-15T10:51:16.899Z,11.63
2018-04-15T10:53:45.831Z,10.77
2018-04-15T10:56:14.703Z,9.57
2018-04-15T10:58:43.583Z,11.17
2018-04-15T11:01:12.547Z,11.60
2018-04-15T11:03:41.423Z,12.87
2018-04-15T11:06:10.319Z,10.13
2018-04-15T11:08:39.250Z,11.37
2018-04-15T11:11:08.875Z,8.40
2018-04-15T11:13:37.805Z,10.27
2018-04-15T11:16:07.463Z,10.30
2018-04-15T11:18:36.691Z,12.67
2018-04-15T11:21:06.377Z,11.93
2018-04-15T11:23:36.018Z,9.63
2018-04-15T11:26:04.927Z,10.07
2018-04-15T11:28:33.896Z,11.83
2018-04-15T11:31:02.777Z,12.97
2018-04-15T11:33:31.687Z,9.97
2018-04-15T11:36:00.561Z,11.83
2018-04-15T11:38:29.560Z,11.17
2018-04-15T11:40:58.437Z,10.40
2018-04-15T11:43:27.365Z,11.37
2018-04-15T11:45:57.027Z,12.10
2018-04-15T11:48:26.671Z,13.77
2018-04-15T11:50:55.574Z,12.73
2018-04-15T11:53:24.452Z,15.60
2018-04-15T11:55:53.326Z,16.87
2018-04-15T11:58:22.223Z,15.03
2018-04-15T12:00:51.095Z,12.67
2018-04-15T12:03:20.027Z,15.33
2018-04-15T12:05:48.907Z,14.77
2018-04-15T12:08:17.779Z,13.57
2018-04-15T12:10:46.696Z,12.33
2018-04-15T12:13:15.570Z,17.10
2018-04-15T12:15:45.241Z,10.43
2018-04-15T12:18:14.164Z,11.93
2018-04-15T12:20:43.804Z,13.23
2018-04-15T12:23:12.692Z,12.20
2018-04-15T12:25:42.368Z,10.80
2018-04-15T12:28:11.246Z,13.63
2018-04-15T12:30:40.116Z,17.10
2018-04-15T12:33:09.042Z,14.40
2018-04-15T12:35:37.940Z,17.87
2018-04-15T12:38:06.827Z,12.50
2018-04-15T12:40:35.740Z,18.37
2018-04-15T12:43:04.619Z,14.43
2018-04-15T12:45:33.495Z,12.77
2018-04-15T12:48:02.391Z,15.70
2018-04-15T12:50:31.266Z,13.90
2018-04-15T12:53:00.139Z,14.10
2018-04-15T12:55:29.066Z,13.93
2018-04-15T12:57:57.935Z,13.97
2018-04-15T13:00:26.806Z,13.57
2018-04-15T13:02:55.707Z,17.23
2018-04-15T13:05:25.357Z,12.90
2018-04-15T13:07:55.019Z,13.17
2018-04-15T13:10:23.906Z,11.70
2018-04-15T13:12:53.591Z,10.97
2018-04-15T13:15:22.473Z,14.70
2018-04-15T13:17:52.119Z,12.17
2018-04-15T13:20:21.035Z,10.67
2018-04-15T13:22:49.911Z,11.23
2018-04-15T13:25:18.825Z,14.40
2018-04-15T13:27:47.699Z,16.10
2018-04-15T13:30:16.596Z,12.03
2018-04-15T13:32:45.507Z,13.87
2018-04-15T13:35:14.384Z,15.37
2018-04-15T13:37:43.256Z,14.03
2018-04-15T13:40:12.147Z,10.97
2018-04-15T13:42:41.796Z,11.90
2018-04-15T13:45:10.867Z,15.37
2018-04-15T13:47:39.740Z,13.33
2018-04-15T13:50:08.656Z,13.30
2018-04-15T13:52:38.406Z,12.90
2018-04-15T13:55:07.284Z,11.20
2018-04-15T13:57:36.159Z,11.00
2018-04-15T14:00:05.107Z,12.63
2018-04-15T14:02:34.123Z,12.10
2018-04-15T14:05:03.000Z,11.57
2018-04-15T14:07:31.888Z,11.00
2018-04-15T14:10:00.803Z,12.33
2018-04-15T14:12:30.460Z,11.63
2018-04-15T14:14:59.328Z,10.13
2018-04-15T14:17:28.228Z,12.23
2018-04-15T14:19:57.875Z,13.17
2018-04-15T14:22:26.801Z,16.83
2018-04-15T14:24:56.459Z,12.07
2018-04-15T14:27:25.363Z,13.63
2018-04-15T14:29:54.237Z,15.60
2018-04-15T14:32:23.111Z,10.57
2018-04-15T14:34:52.070Z,13.67
2018-04-15T14:37:20.952Z,66.53
2018-04-15T14:39:49.889Z,12.83
2018-04-15T14:42:18.771Z,13.67
2018-04-15T14:44:47.667Z,11.70
2018-04-15T14:47:17.349Z,12.63
2018-04-15T14:49:46.228Z,12.17
2018-04-15T14:52:15.255Z,11.17
2018-04-15T14:54:44.686Z,16.27
2018-04-15T14:57:13.752Z,10.13
2018-04-15T14:59:42.795Z,14.37
2018-04-15T15:02:11.733Z,12.00
2018-04-15T15:04:40.743Z,13.70
2018-04-15T15:07:11.620Z,13.63
2018-04-15T15:09:40.635Z,13.53
2018-04-15T15:12:09.519Z,16.57
2018-04-15T15:14:39.163Z,16.73
2018-04-15T15:17:08.090Z,30.10
2018-04-15T15:19:37.793Z,30.93
2018-04-15T15:22:06.647Z,14.10
2018-04-15T15:24:35.551Z,14.40
2018-04-15T15:27:04.440Z,13.20
2018-04-15T15:29:33.327Z,15.57
2018-04-15T15:32:02.263Z,12.63
2018-04-15T15:34:31.950Z,18.53
2018-04-15T15:37:01.588Z,17.57
2018-04-15T15:39:30.488Z,19.63
2018-04-15T15:41:59.385Z,14.70
2018-04-15T15:44:29.046Z,13.27
2018-04-15T15:46:57.919Z,15.73
2018-04-15T15:49:26.812Z,12.13
2018-04-15T15:51:55.716Z,12.23
2018-04-15T15:54:25.396Z,15.80
2018-04-15T15:56:55.057Z,12.47
2018-04-15T15:59:24.916Z,14.53
2018-04-15T16:01:53.831Z,13.47
2018-04-15T16:04:22.704Z,12.00
2018-04-15T16:06:51.588Z,10.30
2018-04-15T16:09:20.492Z,13.87
2018-04-15T16:11:50.156Z,11.17
2018-04-15T16:14:19.048Z,9.20
2018-04-15T16:16:47.942Z,14.90
2018-04-15T16:19:17.632Z,12.77
2018-04-15T16:21:47.279Z,16.33
2018-04-15T16:24:16.184Z,14.23
2018-04-15T16:26:45.087Z,15.43
2018-04-15T16:29:13.971Z,16.63
2018-04-15T16:31:42.875Z,15.10
2018-04-15T16:34:11.777Z,17.27
2018-04-15T16:36:41.446Z,13.87
2018-04-15T16:39:10.345Z,14.63
2018-04-15T16:41:39.243Z,12.97
2018-04-15T16:44:08.911Z,16.70
2018-04-15T16:46:37.788Z,12.53
2018-04-15T16:49:06.699Z,16.43
2018-04-15T16:51:35.579Z,14.30
2018-04-15T16:54:04.527Z,11.23
2018-04-15T16:56:33.412Z,12.77
2018-04-15T16:59:02.299Z,14.67
2018-04-15T17:01:31.176Z,14.03
2018-04-15T17:04:00.091Z,14.27
2018-04-15T17:06:28.968Z,15.87
2018-04-15T17:08:57.839Z,12.50
2018-04-15T17:11:26.756Z,12.20
2018-04-15T17:13:56.415Z,11.97
2018-04-15T17:16:25.302Z,11.50
2018-04-15T17:18:54.207Z,13.47
2018-04-15T17:21:23.946Z,16.83
2018-04-15T17:23:52.876Z,18.33
2018-04-15T17:26:22.523Z,26.80
2018-04-15T17:28:51.417Z,21.33
2018-04-15T17:31:20.437Z,26.90
2018-04-15T17:33:49.460Z,24.50
2018-04-15T17:36:18.647Z,26.37
2018-04-15T17:38:47.563Z,19.70
2018-04-15T17:41:16.533Z,22.10
2018-04-15T17:43:46.203Z,26.57
2018-04-15T17:46:15.085Z,25.27
2018-04-15T17:48:44.840Z,23.23
2018-04-15T17:51:13.760Z,17.83
2018-04-15T17:53:43.405Z,16.00
2018-04-15T17:56:12.798Z,16.77
2018-04-15T17:58:41.722Z,15.00
2018-04-15T18:01:10.656Z,23.10
2018-04-15T18:03:39.610Z,14.77
2018-04-15T18:06:08.500Z,16.67
2018-04-15T18:08:37.383Z,16.97
2018-04-15T18:11:06.553Z,16.90
2018-04-15T18:13:35.498Z,15.60
2018-04-15T18:16:04.371Z,14.20
2018-04-15T18:18:33.952Z,17.57
2018-04-15T18:21:03.803Z,14.10
2018-04-15T18:23:33.652Z,18.70
2018-04-15T18:26:02.911Z,19.63
2018-04-15T18:28:31.867Z,15.30
2018-04-15T18:31:01.129Z,16.13
2018-04-15T18:33:30.293Z,14.53
2018-04-15T18:35:59.620Z,19.20
2018-04-15T18:38:28.715Z,16.23
2018-04-15T18:40:57.771Z,17.73
2018-04-15T18:43:26.662Z,15.43
2018-04-15T18:45:55.546Z,16.27
2018-04-15T18:48:24.636Z,19.40
2018-04-15T18:50:54.416Z,16.53
2018-04-15T18:53:23.404Z,17.47
2018-04-15T18:55:53.306Z,20.70
2018-04-15T18:58:24.067Z,17.73
2018-04-15T19:00:53.247Z,17.37
2018-04-15T19:03:22.240Z,19.80
2018-04-15T19:05:51.250Z,18.17
2018-04-15T19:08:20.130Z,18.03
2018-04-15T19:10:49.803Z,16.47
2018-04-15T19:13:19.048Z,17.13
2018-04-15T19:15:47.939Z,17.37
2018-04-15T19:18:17.063Z,18.93
2018-04-15T19:20:46.948Z,16.37
2018-04-15T19:23:15.938Z,19.83
2018-04-15T19:25:45.978Z,17.83
2018-04-15T19:28:15.023Z,14.83
2018-04-15T19:30:43.942Z,16.77
2018-04-15T19:33:12.883Z,15.20
2018-04-15T19:35:42.729Z,15.17
2018-04-15T19:38:11.733Z,17.17
2018-04-15T19:40:40.684Z,19.37
2018-04-15T19:43:09.693Z,16.07
2018-04-15T19:45:38.792Z,17.30
2018-04-15T19:48:08.570Z,16.20
2018-04-15T19:50:37.742Z,18.10
2018-04-15T19:53:06.737Z,16.00
2018-04-15T19:55:37.417Z,14.77
2018-04-15T19:58:06.343Z,15.83
2018-04-15T20:00:35.231Z,14.70
2018-04-15T20:03:04.171Z,15.60
2018-04-15T20:05:33.102Z,16.67
2018-04-15T20:08:02.763Z,18.83
2018-04-15T20:10:31.691Z,20.60
2018-04-15T20:13:00.564Z,20.63
2018-04-15T20:15:29.443Z,26.57
2018-04-15T20:17:58.353Z,22.30
2018-04-15T20:20:27.995Z,25.43
2018-04-15T20:22:56.967Z,21.73
2018-04-15T20:25:25.847Z,20.13
2018-04-15T20:27:55.005Z,21.10
2018-04-15T20:30:23.963Z,16.93
2018-04-15T20:32:52.857Z,22.47
2018-04-15T20:35:21.755Z,23.17
2018-04-15T20:37:50.631Z,21.20
2018-04-15T20:40:19.512Z,26.90
2018-04-15T20:42:48.438Z,26.20
2018-04-15T20:45:17.350Z,24.50
2018-04-15T20:47:46.250Z,18.97
2018-04-15T20:50:15.155Z,20.47
2018-04-15T20:52:44.042Z,23.30
2018-04-15T20:55:13.102Z,22.33
2018-04-15T20:57:41.963Z,19.90
2018-04-15T21:00:10.856Z,21.77
2018-04-15T21:02:40.434Z,22.80
2018-04-15T21:05:10.089Z,22.57
2018-04-15T21:07:39.024Z,24.10
2018-04-15T21:10:07.933Z,22.23
2018-04-15T21:12:36.826Z,19.93
2018-04-15T21:15:05.739Z,19.57
2018-04-15T21:17:35.390Z,20.83
2018-04-15T21:20:04.292Z,20.27
2018-04-15T21:22:33.213Z,20.20
2018-04-15T21:25:02.104Z,19.93
2018-04-15T21:27:30.993Z,19.23
2018-04-15T21:29:59.916Z,24.20
2018-04-15T21:32:28.844Z,19.77
2018-04-15T21:34:58.535Z,24.73
2018-04-15T21:37:27.476Z,24.23
2018-04-15T21:39:56.357Z,23.37
2018-04-15T21:42:25.277Z,21.23
2018-04-15T21:44:54.175Z,23.83
2018-04-15T21:47:23.960Z,21.87
2018-04-15T21:49:53.634Z,19.57
2018-04-15T21:52:22.583Z,22.57
2018-04-15T21:54:52.095Z,22.27
2018-04-15T21:57:21.000Z,24.40
2018-04-15T21:59:50.689Z,26.53
2018-04-15T22:02:19.655Z,24.97
2018-04-15T22:04:48.567Z,21.73
2018-04-15T22:07:17.469Z,25.33
2018-04-15T22:09:49.336Z,21.37
2018-04-15T22:12:19.642Z,24.00
2018-04-15T22:14:48.603Z,22.53
2018-04-15T22:17:17.481Z,22.23
2018-04-15T22:19:46.367Z,22.20
2018-04-15T22:22:15.299Z,21.53
2018-04-15T22:24:44.327Z,25.53
2018-04-15T22:27:13.237Z,20.67
2018-04-15T22:29:42.908Z,18.60
2018-04-15T22:32:11.833Z,20.37
2018-04-15T22:34:40.744Z,22.13
2018-04-15T22:37:09.627Z,23.83
2018-04-15T22:39:38.515Z,24.37
2018-04-15T22:42:07.415Z,24.67
2018-04-15T22:44:36.307Z,24.13
2018-04-15T22:47:05.408Z,24.30
2018-04-15T22:49:34.316Z,26.50
2018-04-15T22:52:03.347Z,27.77
2018-04-15T22:54:32.244Z,29.70
2018-04-15T22:57:17.551Z,22.03
2018-04-15T22:59:47.214Z,25.30
2018-04-15T23:02:16.127Z,26.30
2018-04-15T23:04:45.008Z,25.33
2018-04-15T23:07:13.937Z,31.57
2018-04-15T23:09:42.868Z,23.90
2018-04-15T23:12:11.808Z,26.93
2018-04-15T23:14:40.687Z,22.13
2018-04-15T23:17:10.356Z,23.93
2018-04-15T23:19:39.281Z,25.30
2018-04-15T23:22:08.172Z,25.47
2018-04-15T23:24:37.060Z,22.90
2018-04-15T23:27:05.971Z,25.93
2018-04-15T23:29:35.632Z,26.07
2018-04-15T23:32:04.551Z,23.13
2018-04-15T23:34:34.204Z,22.00
2018-04-15T23:37:03.092Z,22.03
2018-04-15T23:39:32.026Z,22.33
2018-04-15T23:42:00.922Z,23.63
2018-04-15T23:44:29.802Z,24.30
2018-04-15T23:46:58.732Z,27.13
2018-04-15T23:49:27.619Z,23.57
2018-04-15T23:51:56.508Z,24.80
2018-04-15T23:54:25.407Z,24.93
2018-04-15T23:56:56.108Z,27.33
2018-04-15T23:59:25.032Z,22.60
